Time;durP1;ratioP1;P1;durP2;ratioP2;P2;SDS_P1;SDS_P2;PMS_P1;PMS_P2;Temp;Humidity;BMP_temperature;BMP_pressure;BME280_temperature;BME280_humidity;BME280_pressure;Samples;Min_cycle;Max_cycle;Signal;HPM_P1;HPM_P2
2020/12/23 00:01:46;;;;;;;29.02;17.48;;;11.30;96.80;;;;;;5047128;28;20116;-87
2020/12/23 00:04:11;;;;;;;33.20;19.38;;;11.30;96.80;;;;;;5055442;28;20032;-88
2020/12/23 00:06:37;;;;;;;27.42;17.75;;;11.30;96.60;;;;;;5038901;28;20037;-87
2020/12/23 00:09:05;;;;;;;28.15;17.23;;;11.30;96.70;;;;;;5054738;28;20020;-87
2020/12/23 00:11:34;;;;;;;24.95;16.77;;;11.30;96.70;;;;;;5038418;28;20475;-87
2020/12/23 00:14:00;;;;;;;26.80;14.95;;;11.20;96.70;;;;;;5038172;28;20025;-87
2020/12/23 00:16:26;;;;;;;22.35;14.30;;;11.20;96.80;;;;;;5038758;28;20421;-87
2020/12/23 00:18:51;;;;;;;22.52;15.27;;;11.20;96.80;;;;;;5038593;28;20025;-87
2020/12/23 00:21:17;;;;;;;27.15;16.75;;;11.20;96.80;;;;;;5038012;28;20047;-87
2020/12/23 00:23:42;;;;;;;29.42;16.70;;;11.20;96.70;;;;;;5054710;28;20394;-87
2020/12/23 00:26:09;;;;;;;29.00;17.27;;;11.20;96.70;;;;;;5054593;28;20031;-86
2020/12/23 00:28:35;;;;;;;27.85;16.55;;;11.20;96.80;;;;;;5034547;28;20025;-86
2020/12/23 00:31:01;;;;;;;23.83;15.70;;;11.20;96.80;;;;;;5034818;28;20106;-86
2020/12/23 00:33:27;;;;;;;24.33;14.38;;;11.20;96.80;;;;;;5034848;28;20025;-86
2020/12/23 00:35:53;;;;;;;21.50;13.82;;;11.20;96.90;;;;;;5013574;28;20446;-86
2020/12/23 00:38:18;;;;;;;21.27;13.43;;;11.30;96.90;;;;;;5034404;28;20486;-86
2020/12/23 00:40:44;;;;;;;21.75;13.10;;;11.30;96.90;;;;;;5034392;23;20107;-89
2020/12/23 00:43:10;;;;;;;18.23;11.98;;;11.30;97.00;;;;;;5032084;28;20134;-88
2020/12/23 00:45:36;;;;;;;20.17;12.40;;;11.30;97.00;;;;;;5002204;28;20551;-89
2020/12/23 00:48:05;;;;;;;22.23;13.13;;;11.30;97.00;;;;;;5034553;28;20120;-89
2020/12/23 00:50:31;;;;;;;21.73;12.93;;;11.30;97.00;;;;;;5021287;28;20132;-89
2020/12/23 00:52:57;;;;;;;23.85;14.20;;;11.30;97.00;;;;;;5034800;28;20048;-89
2020/12/23 00:55:22;;;;;;;24.73;13.65;;;11.40;97.00;;;;;;5018411;28;20024;-89
2020/12/23 00:57:48;;;;;;;24.85;13.65;;;11.30;97.00;;;;;;5018603;28;20033;-89
2020/12/23 01:00:14;;;;;;;21.20;12.98;;;11.40;97.00;;;;;;5018297;28;20540;-89
2020/12/23 01:02:39;;;;;;;23.23;13.52;;;11.40;97.10;;;;;;5054713;28;20024;-89
2020/12/23 01:05:05;;;;;;;24.00;13.82;;;11.40;97.00;;;;;;5027581;28;20057;-89
2020/12/23 01:07:30;;;;;;;22.95;13.48;;;11.40;97.00;;;;;;5044377;28;20062;-90
2020/12/23 01:09:56;;;;;;;26.10;15.45;;;11.40;97.00;;;;;;5032766;28;20497;-90
2020/12/23 01:12:22;;;;;;;25.88;13.60;;;11.40;97.00;;;;;;5041466;28;20094;-89
2020/12/23 01:14:47;;;;;;;23.83;13.60;;;11.40;97.00;;;;;;5035017;28;20033;-89
2020/12/23 01:17:14;;;;;;;22.90;13.55;;;11.40;97.00;;;;;;5046781;28;20501;-90
2020/12/23 01:19:40;;;;;;;24.08;14.35;;;11.40;97.00;;;;;;5026697;28;20061;-90
2020/12/23 01:22:06;;;;;;;29.63;15.23;;;11.40;97.00;;;;;;5038359;28;20029;-90
2020/12/23 01:24:32;;;;;;;27.67;14.77;;;11.40;97.00;;;;;;5018273;28;20493;-90
2020/12/23 01:26:58;;;;;;;28.05;15.50;;;11.40;97.00;;;;;;5033423;28;20051;-89
2020/12/23 01:29:24;;;;;;;27.58;15.85;;;11.40;97.00;;;;;;5030337;28;20095;-89
2020/12/23 01:31:50;;;;;;;28.88;16.20;;;11.40;97.00;;;;;;5011829;28;20120;-90
2020/12/23 01:34:15;;;;;;;28.42;15.95;;;11.40;96.90;;;;;;5066114;28;20025;-89
2020/12/23 01:36:41;;;;;;;28.73;15.35;;;11.40;97.00;;;;;;5015461;28;20045;-89
2020/12/23 01:39:06;;;;;;;24.90;13.48;;;11.40;97.00;;;;;;5028918;28;20525;-89
2020/12/23 01:41:32;;;;;;;28.52;15.68;;;11.40;97.30;;;;;;5027042;28;20323;-89
2020/12/23 01:43:58;;;;;;;28.02;16.40;;;11.30;97.00;;;;;;5031528;28;20029;-89
2020/12/23 01:46:32;;;;;;;30.77;16.25;;;11.40;97.10;;;;;;5038798;28;20035;-90
2020/12/23 01:49:03;;;;;;;28.65;14.15;;;11.40;97.10;;;;;;5057567;28;20082;-89
2020/12/23 01:51:29;;;;;;;;;;;11.40;97.10;;;;;;5043629;28;20013;-89
2020/12/23 01:53:56;;;;;;;28.60;15.05;;;11.40;97.10;;;;;;5044639;28;19912;-89
2020/12/23 01:56:22;;;;;;;27.50;15.20;;;11.40;97.20;;;;;;5050702;28;20056;-90
2020/12/23 01:58:48;;;;;;;28.40;14.73;;;11.40;97.10;;;;;;5013457;28;20025;-90
2020/12/23 02:01:19;;;;;;;31.50;15.30;;;11.40;97.20;;;;;;5028256;28;20370;-90
2020/12/23 02:03:45;;;;;;;26.60;14.45;;;11.40;97.20;;;;;;5048285;28;20021;-89
2020/12/23 02:06:11;;;;;;;34.30;16.88;;;11.40;97.20;;;;;;5030070;28;20036;-89
2020/12/23 02:08:37;;;;;;;30.63;16.17;;;11.40;97.20;;;;;;5033800;28;20021;-90
2020/12/23 02:11:03;;;;;;;28.27;15.13;;;11.40;97.10;;;;;;5026870;28;20112;-90
2020/12/23 02:13:43;;;;;;;34.88;16.63;;;11.40;97.20;;;;;;5037338;28;20672;-89
2020/12/23 02:16:10;;;;;;;29.73;15.10;;;11.40;97.20;;;;;;5064524;28;20158;-90
2020/12/23 02:18:37;;;;;;;34.58;16.83;;;11.40;97.20;;;;;;5057214;28;20477;-87
2020/12/23 02:21:03;;;;;;;32.20;14.63;;;11.40;97.20;;;;;;5040314;28;20381;-87
2020/12/23 02:23:29;;;;;;;35.28;16.20;;;11.40;97.20;;;;;;5027315;28;20021;-88
2020/12/23 02:25:55;;;;;;;32.13;15.48;;;11.40;97.20;;;;;;5037618;28;20031;-88
2020/12/23 02:28:23;;;;;;;34.00;16.67;;;11.40;97.20;;;;;;5037249;28;20491;-87
2020/12/23 02:30:49;;;;;;;31.55;15.38;;;11.40;97.20;;;;;;5051562;28;20117;-87
2020/12/23 02:33:15;;;;;;;35.67;16.15;;;11.50;97.30;;;;;;5047242;28;20025;-87
2020/12/23 02:35:41;;;;;;;49.50;19.80;;;11.50;97.20;;;;;;5055107;28;20017;-87
2020/12/23 02:38:07;;;;;;;44.72;19.38;;;11.40;97.20;;;;;;5037179;28;20405;-87
2020/12/23 02:40:33;;;;;;;40.50;17.88;;;11.40;97.20;;;;;;5020953;28;20087;-87
2020/12/23 02:42:58;;;;;;;39.72;18.02;;;11.40;97.20;;;;;;5036600;28;20022;-87
2020/12/23 02:45:24;;;;;;;41.10;17.60;;;11.40;97.20;;;;;;5001666;28;20033;-87
2020/12/23 02:47:50;;;;;;;41.53;17.50;;;11.50;97.20;;;;;;5000837;28;20033;-87
2020/12/23 02:50:15;;;;;;;50.80;19.27;;;11.40;97.20;;;;;;5034230;28;20387;-87
2020/12/23 02:52:41;;;;;;;51.00;19.42;;;11.40;97.20;;;;;;5021205;28;20022;-87
2020/12/23 02:55:07;;;;;;;35.50;16.30;;;11.50;97.20;;;;;;5040360;28;20029;-87
2020/12/23 02:57:32;;;;;;;40.47;17.33;;;11.40;97.20;;;;;;5036687;28;20544;-87
2020/12/23 02:59:58;;;;;;;47.25;18.98;;;11.50;97.30;;;;;;5020566;28;20493;-87
2020/12/23 03:02:24;;;;;;;47.38;18.98;;;11.50;97.30;;;;;;5004009;28;20071;-87
2020/12/23 03:04:49;;;;;;;45.72;18.98;;;11.40;97.30;;;;;;5038137;28;20029;-87
2020/12/23 03:07:15;;;;;;;37.22;15.93;;;11.50;97.30;;;;;;5039930;28;20529;-87
2020/12/23 03:09:40;;;;;;;36.08;15.88;;;11.50;97.30;;;;;;5040374;28;20016;-87
2020/12/23 03:12:06;;;;;;;40.95;16.30;;;11.50;97.30;;;;;;5033158;28;20022;-87
2020/12/23 03:14:32;;;;;;;40.30;16.55;;;11.50;97.40;;;;;;4984230;28;20071;-87
2020/12/23 03:16:57;;;;;;;42.67;16.67;;;11.50;97.40;;;;;;5018714;28;20105;-87
2020/12/23 03:19:23;;;;;;;44.28;18.30;;;11.50;97.40;;;;;;5008063;28;20033;-87
2020/12/23 03:21:48;;;;;;;47.92;18.58;;;11.50;97.40;;;;;;5040040;28;20032;-88
2020/12/23 03:24:14;;;;;;;40.22;16.30;;;11.50;97.40;;;;;;5034073;28;20029;-87
2020/12/23 03:26:40;;;;;;;56.80;19.83;;;11.50;97.40;;;;;;5039558;28;20394;-87
2020/12/23 03:29:05;;;;;;;58.13;19.48;;;11.50;97.40;;;;;;5023266;28;20535;-86
2020/12/23 03:31:32;;;;;;;46.88;17.70;;;11.50;97.40;;;;;;5024301;28;20039;-86
2020/12/23 03:33:58;;;;;;;48.40;19.83;;;11.50;97.40;;;;;;5055403;28;20021;-87
2020/12/23 03:36:23;;;;;;;48.05;18.38;;;11.50;97.40;;;;;;5031788;28;20025;-87
2020/12/23 03:38:50;;;;;;;57.05;20.85;;;11.50;97.40;;;;;;5036287;28;20028;-87
2020/12/23 03:41:16;;;;;;;60.42;20.10;;;11.50;97.40;;;;;;5039589;28;20528;-87
2020/12/23 03:43:42;;;;;;;56.33;21.25;;;11.50;97.40;;;;;;5023339;28;20090;-88
2020/12/23 03:46:07;;;;;;;67.30;21.35;;;11.50;97.40;;;;;;5021842;28;20025;-87
2020/12/23 03:48:33;;;;;;;51.80;18.65;;;11.50;97.40;;;;;;5056523;28;20474;-87
2020/12/23 03:50:59;;;;;;;69.63;21.95;;;11.50;97.40;;;;;;5031545;28;20021;-87
2020/12/23 03:53:25;;;;;;;57.90;21.55;;;11.60;97.50;;;;;;5039543;28;20432;-87
2020/12/23 03:55:51;;;;;;;61.33;22.40;;;11.60;97.50;;;;;;5013910;28;20120;-87
2020/12/23 03:58:17;;;;;;;68.47;24.33;;;11.50;97.40;;;;;;5020289;28;20147;-87
2020/12/23 04:00:43;;;;;;;75.53;25.10;;;11.50;97.40;;;;;;5026737;28;20021;-87
2020/12/23 04:03:09;;;;;;;67.55;22.70;;;11.60;97.40;;;;;;5055721;28;20462;-87
2020/12/23 04:05:35;;;;;;;60.13;22.20;;;11.60;97.40;;;;;;5055514;28;20016;-87
2020/12/23 04:08:00;;;;;;;63.75;21.45;;;11.60;97.50;;;;;;5055901;28;20469;-87
2020/12/23 04:10:26;;;;;;;77.70;23.48;;;11.60;97.50;;;;;;5039415;28;20099;-87
2020/12/23 04:12:52;;;;;;;105.10;28.55;;;11.60;97.50;;;;;;5030221;28;20085;-87
2020/12/23 04:15:17;;;;;;;84.28;28.77;;;11.60;97.30;;;;;;5036930;28;20020;-87
2020/12/23 04:17:43;;;;;;;67.68;25.85;;;11.60;97.40;;;;;;5055892;28;20579;-87
2020/12/23 04:20:09;;;;;;;79.45;25.95;;;11.50;97.40;;;;;;5042883;28;20544;-87
2020/12/23 04:22:36;;;;;;;84.93;28.25;;;11.60;97.40;;;;;;5054721;28;20032;-87
2020/12/23 04:25:05;;;;;;;91.45;27.30;;;11.60;97.40;;;;;;5044757;28;20394;-87
2020/12/23 04:27:30;;;;;;;63.00;23.40;;;11.60;97.40;;;;;;5045994;28;20025;-87
2020/12/23 04:29:56;;;;;;;60.60;24.10;;;11.60;97.50;;;;;;5032456;28;20029;-87
2020/12/23 04:32:22;;;;;;;59.30;22.75;;;11.60;97.50;;;;;;5032941;28;20028;-87
2020/12/23 04:34:47;;;;;;;65.47;25.52;;;11.60;97.50;;;;;;5026052;28;20023;-87
2020/12/23 04:37:13;;;;;;;51.80;21.13;;;11.60;97.50;;;;;;5038884;28;20020;-87
2020/12/23 04:39:39;;;;;;;58.75;21.58;;;11.60;97.50;;;;;;5038677;28;20029;-87
2020/12/23 04:42:05;;;;;;;55.20;22.05;;;11.60;97.50;;;;;;5011490;28;20025;-87
2020/12/23 04:44:31;;;;;;;55.90;20.63;;;11.70;97.60;;;;;;5039923;28;20052;-87
2020/12/23 04:46:58;;;;;;;74.18;23.63;;;11.70;97.60;;;;;;5059110;28;20028;-88
2020/12/23 04:49:24;;;;;;;75.78;26.80;;;11.70;97.50;;;;;;5042597;28;20025;-87
2020/12/23 04:51:54;;;;;;;83.38;25.90;;;11.70;97.50;;;;;;5051893;28;20013;-87
2020/12/23 04:54:21;;;;;;;86.43;27.37;;;11.70;97.50;;;;;;5022864;28;20033;-87
2020/12/23 04:56:47;;;;;;;72.97;25.50;;;11.70;97.70;;;;;;5044375;28;20059;-87
2020/12/23 04:59:13;;;;;;;55.03;22.95;;;11.70;97.60;;;;;;5042762;28;20032;-87
2020/12/23 05:01:38;;;;;;;68.15;27.83;;;11.70;97.70;;;;;;5025672;28;20032;-87
2020/12/23 05:04:04;;;;;;;124.40;31.70;;;11.70;97.60;;;;;;5039324;28;20495;-88
2020/12/23 05:06:32;;;;;;;78.45;28.80;;;11.70;97.50;;;;;;5040434;28;20032;-88
2020/12/23 05:08:57;;;;;;;80.50;28.02;;;11.60;97.50;;;;;;5043381;28;20107;-88
2020/12/23 05:11:23;;;;;;;78.68;25.67;;;11.60;97.60;;;;;;5009853;28;20485;-88
2020/12/23 05:13:49;;;;;;;69.25;24.80;;;11.70;97.70;;;;;;5003484;28;20068;-87
2020/12/23 05:16:32;;;;;;;80.10;28.30;;;11.70;97.70;;;;;;5003199;28;20022;-89
2020/12/23 05:18:59;;;;;;;60.63;24.13;;;11.70;97.60;;;;;;5003311;28;20053;-88
2020/12/23 05:21:29;;;;;;;53.20;20.38;;;11.70;97.70;;;;;;5020071;28;20020;-88
2020/12/23 05:23:56;;;;;;;46.60;19.13;;;11.70;97.80;;;;;;5003262;28;20479;-89
2020/12/23 05:26:23;;;;;;;39.65;18.10;;;11.70;97.80;;;;;;5003891;28;20087;-88
2020/12/23 05:28:50;;;;;;;41.58;17.83;;;11.70;97.90;;;;;;5023270;28;20386;-88
2020/12/23 05:31:17;;;;;;;32.35;15.63;;;11.70;97.90;;;;;;5042908;28;20021;-88
2020/12/23 05:33:47;;;;;;;44.22;18.77;;;11.70;97.90;;;;;;5042489;28;20085;-88
2020/12/23 05:36:16;;;;;;;35.05;16.92;;;11.80;98.00;;;;;;5042583;28;20024;-88
2020/12/23 05:38:42;;;;;;;46.45;18.13;;;11.80;98.00;;;;;;5059711;28;20020;-88
2020/12/23 05:41:10;;;;;;;37.63;17.05;;;11.80;98.00;;;;;;5058744;28;20052;-88
2020/12/23 05:43:36;;;;;;;34.40;16.80;;;11.80;98.00;;;;;;5058596;28;20074;-88
2020/12/23 05:46:10;;;;;;;35.78;16.15;;;11.80;98.10;;;;;;5059427;28;20013;-88
2020/12/23 05:48:38;;;;;;;30.83;15.52;;;11.80;98.00;;;;;;5058627;28;20454;-88
2020/12/23 05:51:06;;;;;;;34.92;15.25;;;11.90;98.10;;;;;;5058997;28;20522;-89
2020/12/23 05:53:34;;;;;;;37.13;16.15;;;11.80;98.10;;;;;;5043183;28;20425;-89
2020/12/23 05:56:02;;;;;;;29.88;14.07;;;11.90;98.10;;;;;;5058180;28;20454;-88
2020/12/23 05:58:34;;;;;;;28.85;15.15;;;11.90;98.10;;;;;;5059586;28;20112;-87
2020/12/23 06:01:11;;;;;;;26.48;13.30;;;11.90;98.10;;;;;;5059033;28;20024;-91
2020/12/23 06:03:57;;;;;;;27.25;14.15;;;11.90;98.20;;;;;;5035237;28;20116;-91
2020/12/23 06:06:30;;;;;;;28.45;13.75;;;11.90;98.20;;;;;;5029249;28;20526;-90
2020/12/23 06:08:58;;;;;;;22.25;11.88;;;11.90;98.20;;;;;;5045351;28;20021;-90
2020/12/23 06:11:35;;;;;;;28.25;13.88;;;11.90;98.20;;;;;;5057743;28;20023;-90
2020/12/23 06:14:20;;;;;;;26.08;13.60;;;11.90;98.30;;;;;;5048661;28;20013;-90
2020/12/23 06:16:48;;;;;;;24.58;13.60;;;11.90;98.30;;;;;;5038916;28;20033;-90
2020/12/23 06:19:19;;;;;;;27.67;14.18;;;11.90;98.30;;;;;;5042221;28;20363;-90
2020/12/23 06:21:47;;;;;;;26.65;13.57;;;11.90;98.30;;;;;;5038408;28;20489;-90
2020/12/23 06:24:15;;;;;;;21.08;11.60;;;11.90;98.30;;;;;;5057834;28;20107;-90
2020/12/23 06:26:44;;;;;;;31.75;14.32;;;12.00;98.40;;;;;;5040519;28;20022;-90
2020/12/23 06:29:13;;;;;;;32.45;14.90;;;11.90;98.30;;;;;;5059801;28;20025;-90
2020/12/23 06:31:43;;;;;;;28.30;14.70;;;11.90;98.20;;;;;;5057298;28;20020;-90
2020/12/23 06:34:14;;;;;;;21.90;12.57;;;11.90;98.30;;;;;;5035424;28;20466;-90
2020/12/23 06:36:40;;;;;;;33.65;15.23;;;11.90;98.30;;;;;;5034030;28;20057;-90
2020/12/23 06:39:28;;;;;;;32.58;14.38;;;11.90;98.20;;;;;;5058430;23;20033;-89
2020/12/23 06:42:00;;;;;;;62.88;22.15;;;11.90;98.20;;;;;;5073701;28;20089;-90
2020/12/23 06:44:54;;;;;;;33.00;16.88;;;11.90;98.10;;;;;;5069731;28;20047;-90
2020/12/23 06:47:21;;;;;;;37.80;17.98;;;11.90;98.30;;;;;;5050971;28;20036;-90
2020/12/23 06:49:46;;;;;;;53.55;20.70;;;11.90;98.30;;;;;;5037538;28;20020;-91
2020/12/23 06:52:21;;;;;;;39.50;18.92;;;11.80;98.20;;;;;;5037068;28;20025;-90
2020/12/23 06:55:04;;;;;;;40.92;19.02;;;11.90;98.30;;;;;;5059359;28;20078;-90
2020/12/23 06:57:49;;;;;;;33.40;17.80;;;11.80;98.40;;;;;;5057041;28;20560;-90
2020/12/23 07:00:23;;;;;;;47.15;21.33;;;11.90;98.60;;;;;;5056729;28;20024;-90
2020/12/23 07:03:00;;;;;;;50.33;22.10;;;11.80;98.60;;;;;;5056882;28;20036;-91
2020/12/23 07:05:33;;;;;;;44.78;20.05;;;11.90;98.70;;;;;;5050886;28;20025;-90
2020/12/23 07:08:26;;;;;;;40.40;19.13;;;11.90;98.80;;;;;;5053973;28;20037;-91
2020/12/23 07:10:52;;;;;;;41.50;18.77;;;11.90;99.00;;;;;;5048296;28;20060;-90
2020/12/23 07:13:19;;;;;;;45.13;19.92;;;11.90;99.10;;;;;;5041889;28;20017;-90
2020/12/23 07:15:54;;;;;;;28.00;15.65;;;12.00;99.10;;;;;;5047352;28;20052;-93
2020/12/23 07:18:28;;;;;;;26.08;15.35;;;12.00;99.20;;;;;;5068042;28;20032;-89
2020/12/23 07:21:03;;;;;;;25.70;14.68;;;12.00;99.10;;;;;;5043835;28;20414;-91
2020/12/23 07:23:30;;;;;;;24.77;14.23;;;12.10;99.20;;;;;;5049416;28;20563;-91
2020/12/23 07:26:07;;;;;;;35.65;18.73;;;12.10;99.10;;;;;;5049647;28;20012;-91
2020/12/23 07:28:37;;;;;;;26.52;15.52;;;12.10;99.10;;;;;;5055614;28;20082;-90
2020/12/23 07:31:04;;;;;;;28.17;15.15;;;12.10;99.20;;;;;;5050342;28;20055;-91
2020/12/23 07:33:30;;;;;;;28.60;16.35;;;12.10;99.10;;;;;;5048925;28;20024;-91
2020/12/23 07:36:01;;;;;;;35.78;17.65;;;12.20;99.10;;;;;;5043991;28;20408;-91
2020/12/23 07:38:32;;;;;;;23.55;13.88;;;12.20;99.10;;;;;;5035912;28;20123;-91
2020/12/23 07:40:58;;;;;;;;;;;12.20;99.20;;;;;;5050353;28;20029;-90
2020/12/23 07:43:24;;;;;;;26.52;14.25;;;12.20;99.10;;;;;;5040949;28;20354;-90
2020/12/23 07:45:50;;;;;;;42.40;18.02;;;12.20;99.00;;;;;;5052150;28;20049;-91
2020/12/23 07:48:18;;;;;;;40.13;17.73;;;12.20;99.10;;;;;;5055378;28;20044;-91
2020/12/23 07:50:50;;;;;;;38.28;17.38;;;12.20;99.10;;;;;;5038183;28;20025;-91
2020/12/23 07:53:23;;;;;;;25.75;14.52;;;12.20;99.20;;;;;;5074131;28;20024;-88
2020/12/23 07:55:56;;;;;;;37.45;17.70;;;12.20;99.20;;;;;;5040119;28;20162;-88
2020/12/23 07:58:22;;;;;;;28.38;15.32;;;12.20;99.20;;;;;;5074138;28;20382;-88
2020/12/23 08:00:47;;;;;;;35.92;17.60;;;12.30;99.30;;;;;;5056363;28;20047;-87
2020/12/23 08:03:14;;;;;;;40.10;19.05;;;12.20;99.20;;;;;;5053980;28;20024;-87
2020/12/23 08:05:40;;;;;;;32.72;17.05;;;12.20;99.20;;;;;;5049956;28;20033;-87
2020/12/23 08:08:06;;;;;;;34.58;16.95;;;12.30;99.20;;;;;;5056389;28;20094;-87
2020/12/23 08:10:33;;;;;;;29.48;14.75;;;12.20;99.30;;;;;;5040340;28;20021;-87
2020/12/23 08:13:01;;;;;;;34.80;16.88;;;12.30;99.30;;;;;;5056572;28;20032;-87
2020/12/23 08:15:28;;;;;;;34.00;16.50;;;12.30;99.20;;;;;;5056734;28;20473;-87
2020/12/23 08:18:07;;;;;;;26.10;14.05;;;12.20;99.50;;;;;;5048987;28;20107;-87
2020/12/23 08:20:33;;;;;;;30.70;15.30;;;12.30;99.30;;;;;;5039285;28;20032;-86
2020/12/23 08:23:00;;;;;;;37.05;17.10;;;12.30;99.30;;;;;;5051372;28;20082;-87
2020/12/23 08:25:27;;;;;;;23.20;12.75;;;12.30;99.20;;;;;;5049156;28;20043;-87
2020/12/23 08:27:56;;;;;;;25.70;12.95;;;12.30;99.30;;;;;;5041820;28;20091;-88
2020/12/23 08:30:27;;;;;;;29.00;14.32;;;12.30;99.20;;;;;;5051823;28;20021;-88
2020/12/23 08:33:01;;;;;;;25.60;13.02;;;12.30;99.40;;;;;;5051989;28;20017;-88
2020/12/23 08:35:28;;;;;;;30.48;14.05;;;12.30;99.10;;;;;;5040838;28;20111;-91
2020/12/23 08:37:54;;;;;;;25.98;12.95;;;12.30;99.10;;;;;;5057013;28;20028;-90
2020/12/23 08:40:20;;;;;;;26.05;14.10;;;12.40;99.20;;;;;;5056119;28;20463;-90
2020/12/23 08:42:57;;;;;;;19.70;11.13;;;12.30;99.20;;;;;;5047602;28;20085;-87
2020/12/23 08:45:30;;;;;;;24.83;12.27;;;12.30;99.30;;;;;;5057200;28;20021;-86
2020/12/23 08:47:57;;;;;;;24.42;12.80;;;12.30;99.20;;;;;;5059188;28;20519;-88
2020/12/23 08:50:25;;;;;;;17.13;10.80;;;12.30;99.30;;;;;;5059172;28;20017;-87
2020/12/23 08:52:52;;;;;;;17.33;10.02;;;12.30;99.30;;;;;;5065598;28;20369;-87
2020/12/23 08:55:23;;;;;;;19.15;10.93;;;12.30;99.30;;;;;;5057488;28;20031;-90
2020/12/23 09:04:32;;;;;;;17.83;10.65;;;12.30;99.30;;;;;;5070983;28;20030;-90
2020/12/23 09:06:58;;;;;;;13.30;8.77;;;12.30;99.30;;;;;;5059027;28;20123;-91
2020/12/23 09:09:27;;;;;;;13.85;8.65;;;12.30;99.30;;;;;;5055881;28;20029;-89
2020/12/23 09:11:56;;;;;;;18.17;10.05;;;12.40;99.30;;;;;;5041468;28;20025;-87
2020/12/23 09:14:34;;;;;;;16.80;10.68;;;12.40;99.20;;;;;;5048409;28;20013;-87
2020/12/23 09:17:18;;;;;;;13.60;8.35;;;12.40;99.20;;;;;;5045266;28;20081;-89
2020/12/23 09:20:04;;;;;;;11.77;7.50;;;12.40;99.30;;;;;;5062663;28;20498;-88
2020/12/23 09:22:38;;;;;;;17.50;8.85;;;12.40;99.20;;;;;;5051604;28;20029;-88
2020/12/23 09:25:12;;;;;;;9.43;6.68;;;12.40;99.10;;;;;;5059048;28;20021;-88
2020/12/23 09:27:38;;;;;;;10.60;6.55;;;12.40;99.20;;;;;;5053422;28;20111;-88
2020/12/23 09:30:06;;;;;;;12.75;6.68;;;12.50;99.20;;;;;;5058100;28;20055;-87
2020/12/23 09:32:31;;;;;;;14.30;8.23;;;12.50;99.10;;;;;;5056158;28;20047;-88
2020/12/23 09:35:17;;;;;;;13.60;7.10;;;12.40;99.00;;;;;;5039131;28;20021;-88
2020/12/23 09:37:43;;;;;;;10.70;6.50;;;12.40;99.10;;;;;;5052679;28;20560;-88
2020/12/23 09:40:11;;;;;;;9.80;6.10;;;12.40;99.30;;;;;;5040201;28;20072;-90
2020/12/23 09:42:37;;;;;;;12.63;7.18;;;12.50;99.00;;;;;;5057025;28;20056;-88
2020/12/23 09:45:03;;;;;;;11.07;6.57;;;12.50;99.00;;;;;;5040613;28;20458;-89
2020/12/23 09:47:29;;;;;;;13.25;7.65;;;12.40;99.00;;;;;;5069666;28;20036;-89
2020/12/23 09:49:54;;;;;;;13.88;8.05;;;12.50;99.00;;;;;;5039782;28;20021;-89
2020/12/23 09:52:20;;;;;;;12.68;7.55;;;12.40;98.90;;;;;;5055548;28;20025;-89
2020/12/23 09:54:46;;;;;;;11.88;6.47;;;12.40;99.00;;;;;;5048169;28;20036;-89
2020/12/23 09:57:11;;;;;;;12.50;7.38;;;12.40;99.10;;;;;;5057556;28;20021;-89
2020/12/23 09:59:37;;;;;;;10.18;6.35;;;12.40;99.00;;;;;;5045434;28;20512;-89
2020/12/23 10:02:03;;;;;;;16.48;8.50;;;12.40;99.10;;;;;;5048671;28;20113;-89
2020/12/23 10:04:28;;;;;;;12.00;7.25;;;12.40;99.00;;;;;;5031306;28;20033;-89
2020/12/23 10:06:54;;;;;;;11.23;6.93;;;12.40;99.00;;;;;;5056247;28;20037;-89
2020/12/23 10:09:19;;;;;;;9.40;6.13;;;12.50;99.00;;;;;;5023387;28;20390;-89
2020/12/23 10:11:45;;;;;;;13.88;8.38;;;12.40;99.00;;;;;;5051005;28;20025;-89
2020/12/23 10:14:11;;;;;;;14.43;7.57;;;12.50;99.10;;;;;;5056179;28;20020;-89
2020/12/23 10:16:36;;;;;;;16.98;8.63;;;12.50;99.10;;;;;;5057822;28;20032;-89
2020/12/23 10:19:02;;;;;;;15.48;8.77;;;12.40;99.00;;;;;;5055132;28;20466;-89
2020/12/23 10:21:28;;;;;;;15.27;8.98;;;12.40;99.00;;;;;;5052205;28;20017;-89
2020/12/23 10:23:54;;;;;;;16.70;9.38;;;12.40;99.10;;;;;;5051878;28;20074;-89
2020/12/23 10:26:19;;;;;;;14.80;8.13;;;12.40;99.10;;;;;;5076079;28;20031;-89
2020/12/23 10:28:46;;;;;;;13.82;7.78;;;12.40;99.10;;;;;;5073081;28;20017;-89
2020/12/23 10:31:11;;;;;;;11.50;7.35;;;12.40;99.10;;;;;;5040184;28;20456;-90
2020/12/23 10:33:37;;;;;;;15.63;8.23;;;12.40;99.10;;;;;;5046566;28;20541;-89
2020/12/23 10:36:07;;;;;;;12.65;8.63;;;12.40;99.10;;;;;;5044063;28;20021;-89
2020/12/23 10:38:33;;;;;;;11.77;7.70;;;12.40;99.10;;;;;;5041455;28;20466;-89
2020/12/23 10:40:59;;;;;;;12.32;7.57;;;12.40;99.10;;;;;;5040244;28;20064;-89
2020/12/23 10:44:02;;;;;;;17.58;8.85;;;12.40;99.10;;;;;;5018064;28;20032;-89
2020/12/23 10:46:28;;;;;;;11.05;7.38;;;12.40;99.10;;;;;;5027047;28;20029;-89
2020/12/23 10:48:53;;;;;;;10.93;7.70;;;12.40;99.40;;;;;;5021802;28;20049;-89
2020/12/23 10:51:19;;;;;;;17.38;9.20;;;12.50;99.10;;;;;;5033508;28;20031;-89
2020/12/23 10:53:44;;;;;;;11.45;7.63;;;12.50;99.10;;;;;;5030826;28;20022;-89
2020/12/23 10:56:10;;;;;;;13.85;8.40;;;12.50;99.00;;;;;;5031777;28;20032;-89
2020/12/23 10:58:36;;;;;;;13.55;8.25;;;12.50;99.00;;;;;;5036071;28;20033;-89
2020/12/23 11:01:05;;;;;;;14.65;8.40;;;12.50;99.00;;;;;;5029589;28;20121;-89
2020/12/23 11:03:35;;;;;;;10.90;6.78;;;12.50;99.00;;;;;;5044802;28;20037;-88
2020/12/23 11:06:03;;;;;;;13.70;8.55;;;12.50;99.00;;;;;;4995099;28;20076;-90
2020/12/23 11:08:29;;;;;;;17.23;9.43;;;12.60;99.00;;;;;;5036049;28;20029;-89
2020/12/23 11:10:55;;;;;;;11.15;7.57;;;12.60;98.90;;;;;;5036035;28;20470;-90
2020/12/23 11:13:21;;;;;;;9.95;6.68;;;12.60;98.90;;;;;;5036166;28;20024;-89
2020/12/23 11:15:47;;;;;;;10.38;7.07;;;12.60;98.80;;;;;;5045789;28;20017;-90
2020/12/23 11:18:13;;;;;;;17.73;8.80;;;12.60;98.90;;;;;;5035675;28;20489;-90
2020/12/23 11:20:39;;;;;;;9.65;6.10;;;12.60;98.80;;;;;;5036186;28;20389;-90
2020/12/23 11:23:06;;;;;;;8.50;4.68;;;12.60;98.90;;;;;;5036292;28;20089;-89
2020/12/23 11:25:32;;;;;;;8.25;4.55;;;12.60;98.90;;;;;;5035902;28;20041;-89
2020/12/23 11:27:57;;;;;;;8.32;4.93;;;12.70;98.90;;;;;;5035630;28;20475;-89
2020/12/23 11:30:24;;;;;;;7.18;4.60;;;12.70;98.90;;;;;;5053574;28;20530;-89
2020/12/23 11:32:50;;;;;;;13.07;6.78;;;12.80;98.90;;;;;;5029367;28;20029;-90
2020/12/23 11:35:17;;;;;;;8.48;6.25;;;12.80;98.80;;;;;;5033517;28;20115;-89
2020/12/23 11:37:42;;;;;;;9.98;5.82;;;12.80;98.70;;;;;;5024286;28;20022;-88
2020/12/23 11:40:08;;;;;;;8.73;5.72;;;12.80;98.70;;;;;;5025014;28;20065;-88
2020/12/23 11:42:41;;;;;;;10.25;6.68;;;12.80;98.70;;;;;;5051497;28;20051;-89
2020/12/23 11:45:07;;;;;;;11.90;7.95;;;12.80;98.70;;;;;;5059662;28;20036;-88
2020/12/23 11:47:33;;;;;;;13.75;9.20;;;12.80;98.60;;;;;;5038674;28;20560;-88
2020/12/23 11:49:58;;;;;;;18.38;12.38;;;12.80;98.60;;;;;;5055509;28;20039;-88
2020/12/23 11:52:24;;;;;;;20.08;12.40;;;12.70;98.40;;;;;;5055485;28;20078;-88
2020/12/23 11:54:50;;;;;;;21.30;12.38;;;12.60;98.60;;;;;;5054303;28;20054;-88
2020/12/23 11:57:15;;;;;;;15.95;11.10;;;12.50;98.80;;;;;;5054949;28;20055;-89
2020/12/23 11:59:41;;;;;;;11.98;9.00;;;12.40;99.00;;;;;;5038571;28;20036;-89
2020/12/23 12:02:07;;;;;;;15.70;11.18;;;12.40;99.10;;;;;;5055232;28;20501;-89
2020/12/23 12:04:32;;;;;;;13.13;8.77;;;12.40;99.10;;;;;;5071867;28;20032;-89
2020/12/23 12:06:58;;;;;;;17.20;12.70;;;12.40;99.10;;;;;;5054450;28;20236;-90
2020/12/23 12:09:24;;;;;;;14.85;10.90;;;12.50;99.10;;;;;;5051321;28;20056;-89
2020/12/23 12:11:53;;;;;;;14.13;11.02;;;12.40;99.20;;;;;;5072763;28;20474;-89
2020/12/23 12:14:19;;;;;;;15.85;12.25;;;12.40;99.30;;;;;;5054654;28;20056;-88
2020/12/23 12:16:47;;;;;;;9.40;8.30;;;12.40;99.30;;;;;;5055079;28;20080;-88
2020/12/23 12:19:13;;;;;;;19.60;12.75;;;12.30;99.40;;;;;;5054878;28;20017;-88
2020/12/23 12:21:39;;;;;;;14.18;11.65;;;12.40;99.40;;;;;;5055231;28;20074;-88
2020/12/23 12:24:05;;;;;;;13.52;11.13;;;12.40;99.50;;;;;;5051786;28;20036;-89
2020/12/23 12:26:32;;;;;;;22.10;10.95;;;12.40;99.50;;;;;;5038345;28;20109;-89
2020/12/23 12:28:59;;;;;;;12.35;9.55;;;12.40;99.50;;;;;;5054660;28;20073;-88
2020/12/23 12:31:25;;;;;;;13.07;9.95;;;12.40;99.50;;;;;;5039621;28;20044;-87
2020/12/23 12:37:13;;;;;;;9.57;6.85;;;12.50;99.40;;;;;;5054809;28;20071;-86
2020/12/23 12:39:38;;;;;;;11.68;9.55;;;12.50;99.40;;;;;;5108781;22;20059;-85
2020/12/23 12:42:04;;;;;;;8.88;6.35;;;12.50;99.30;;;;;;5078583;28;20130;-85
2020/12/23 12:44:30;;;;;;;7.28;5.80;;;12.50;99.30;;;;;;5097590;28;20016;-85